Time;durP1;ratioP1;P1;durP2;ratioP2;P2;SDS_P1;SDS_P2;PMS_P1;PMS_P2;Temp;Humidity;BMP_temperature;BMP_pressure;BME280_temperature;BME280_humidity;BME280_pressure;Samples;Min_cycle;Max_cycle;Signal;HPM_P1;HPM_P2
2021/03/10 00:01:51;;;;;;;168.60;86.12;;;;;;;1.58;63.58;100539.47;2868127;83;21157;-59
2021/03/10 00:05:57;;;;;;;148.28;83.10;;;;;;;1.52;63.63;100544.97;2865229;83;21152;-59
2021/03/10 00:10:00;;;;;;;118.22;66.77;;;;;;;1.52;63.72;100543.18;2852630;82;21539;-60
2021/03/10 00:14:11;;;;;;;105.32;59.45;;;;;;;1.51;63.57;100544.57;2864789;83;21169;-59
2021/03/10 00:18:34;;;;;;;108.85;62.90;;;;;;;1.50;63.33;100542.39;2853360;82;21173;-59
2021/03/10 00:23:19;;;;;;;96.17;57.08;;;;;;;1.49;63.11;100542.00;2851957;83;21161;-59
2021/03/10 00:27:57;;;;;;;103.22;61.30;;;;;;;1.47;63.44;100549.08;2824374;83;21102;-59
2021/03/10 00:32:15;;;;;;;85.03;51.65;;;;;;;1.40;63.75;100544.53;2811875;83;21147;-59
2021/03/10 00:36:41;;;;;;;99.60;55.40;;;;;;;1.34;64.38;100550.46;2812279;84;21123;-59
2021/03/10 00:41:27;;;;;;;92.90;52.25;;;;;;;1.28;64.55;100547.17;2857987;83;21154;-60
2021/03/10 00:45:58;;;;;;;87.88;52.23;;;;;;;1.27;64.55;100549.41;2859637;83;21138;-61
2021/03/10 00:50:38;;;;;;;83.42;52.48;;;;;;;1.20;65.09;100542.70;2861569;83;21122;-60
2021/03/10 00:55:03;;;;;;;82.08;50.95;;;;;;;1.17;65.09;100541.48;2861882;83;21067;-60
2021/03/10 00:59:13;;;;;;;78.47;46.63;;;;;;;1.17;65.02;100535.41;2869305;82;21524;-60
2021/03/10 01:03:28;;;;;;;72.30;45.38;;;;;;;1.12;64.99;100535.13;2875294;82;21145;-60
2021/03/10 01:07:43;;;;;;;80.55;44.42;;;;;;;1.12;64.62;100531.64;2875287;82;21122;-59
2021/03/10 01:12:13;;;;;;;84.95;52.27;;;;;;;1.02;64.61;100531.61;2875339;82;21086;-60
2021/03/10 01:16:36;;;;;;;80.92;49.93;;;;;;;1.03;65.41;100534.16;2875527;82;21115;-61
2021/03/10 01:21:05;;;;;;;99.60;57.08;;;;;;;1.04;65.86;100534.55;2875302;82;21183;-59
2021/03/10 01:25:18;;;;;;;99.67;61.30;;;;;;;1.02;66.28;100542.93;2875373;82;21078;-60
2021/03/10 01:29:46;;;;;;;90.05;47.90;;;;;;;1.01;66.81;100539.91;2875859;82;21106;-59
2021/03/10 01:34:15;;;;;;;75.22;50.67;;;;;;;0.91;66.90;100535.48;2873681;82;21106;-61
2021/03/10 01:38:26;;;;;;;72.05;47.67;;;;;;;0.99;68.11;100526.02;2875410;82;21118;-59
2021/03/10 01:43:02;;;;;;;92.62;50.35;;;;;;;0.99;68.11;100526.02;2896739;81;21127;-60
2021/03/10 01:47:13;;;;;;;80.35;46.95;;;;;;;0.93;68.48;100522.34;2933466;79;21570;-60
2021/03/10 01:51:20;;;;;;;99.35;55.78;;;;;;;0.83;68.68;100523.14;2932949;81;21635;-59
2021/03/10 01:55:35;;;;;;;87.85;48.65;;;;;;;0.68;68.93;100517.55;2933123;81;21628;-61
2021/03/10 01:59:41;;;;;;;92.62;49.60;;;;;;;0.57;69.37;100522.31;2912150;81;21616;-58
2021/03/10 02:03:44;;;;;;;78.87;47.65;;;;;;;0.50;68.98;100516.92;2904610;81;21132;-59
2021/03/10 02:08:40;;;;;;;86.53;50.83;;;;;;;0.50;68.98;100516.92;2905743;81;21179;-60
2021/03/10 02:13:20;;;;;;;85.70;56.45;;;;;;;0.46;69.41;100522.71;2905972;81;21147;-58
2021/03/10 02:17:27;;;;;;;74.87;46.95;;;;;;;0.44;68.84;100531.55;2906282;81;21186;-59
2021/03/10 02:21:38;;;;;;;95.47;53.05;;;;;;;0.27;69.18;100509.44;2905953;81;21567;-59
2021/03/10 02:26:13;;;;;;;78.78;51.58;;;;;;;0.27;69.18;100509.44;2906088;81;21158;-58
2021/03/10 02:30:32;;;;;;;91.57;55.92;;;;;;;0.27;67.83;100500.28;2906160;81;21159;-59
2021/03/10 02:34:36;;;;;;;111.55;62.55;;;;;;;0.27;67.83;100500.28;2906063;81;21158;-60
2021/03/10 02:38:43;;;;;;;104.67;65.55;;;;;;;0.44;67.93;100517.15;2905941;81;21153;-58
2021/03/10 02:42:45;;;;;;;;;;;;;;;0.49;67.70;100513.46;2908745;81;21099;-60
2021/03/10 02:46:50;;;;;;;100.33;58.45;;;;;;;0.55;67.05;100516.28;2906262;80;20180;-59
2021/03/10 02:50:55;;;;;;;105.03;54.48;;;;;;;0.49;67.12;100508.67;2906020;81;21178;-59
2021/03/10 02:54:58;;;;;;;89.20;56.85;;;;;;;0.45;66.78;100507.08;2905950;81;21187;-59
2021/03/10 02:59:02;;;;;;;82.67;49.03;;;;;;;0.45;66.78;100507.08;2904402;81;21139;-59
2021/03/10 03:03:06;;;;;;;86.42;52.98;;;;;;;0.32;66.89;100488.34;2915366;81;21107;-60
2021/03/10 03:07:10;;;;;;;90.28;51.77;;;;;;;0.35;66.85;100494.31;2915007;81;21087;-59
2021/03/10 03:11:14;;;;;;;88.33;46.73;;;;;;;0.34;67.20;100504.84;2914882;81;21174;-58
2021/03/10 03:15:19;;;;;;;87.90;49.13;;;;;;;0.34;67.20;100504.84;2914715;81;21119;-60
2021/03/10 03:19:22;;;;;;;86.93;48.30;;;;;;;0.05;68.94;100512.81;2915306;81;21949;-59
2021/03/10 03:23:26;;;;;;;81.17;48.60;;;;;;;-0.11;70.91;100510.31;2914633;81;21154;-60
2021/03/10 03:27:30;;;;;;;81.15;45.95;;;;;;;-0.11;70.91;100510.31;2914860;81;21557;-59
2021/03/10 03:31:35;;;;;;;72.45;44.95;;;;;;;-0.10;71.25;100514.63;2914764;81;21146;-58
2021/03/10 03:35:40;;;;;;;89.28;56.28;;;;;;;-0.28;71.31;100518.27;2914977;81;21169;-58
2021/03/10 03:39:44;;;;;;;89.77;53.70;;;;;;;-0.52;71.38;100512.94;2915020;81;21150;-59
2021/03/10 03:43:50;;;;;;;105.35;62.20;;;;;;;-0.66;71.69;100519.04;2826221;82;21150;-59
2021/03/10 03:47:55;;;;;;;111.03;61.95;;;;;;;-0.77;72.27;100520.69;2820600;84;21154;-59
2021/03/10 03:51:59;;;;;;;106.15;63.50;;;;;;;-0.63;72.47;100520.25;2820395;84;21154;-59
2021/03/10 03:56:02;;;;;;;105.55;60.35;;;;;;;-0.49;71.68;100514.58;2820109;84;21153;-59
2021/03/10 04:00:09;;;;;;;108.57;61.73;;;;;;;-0.34;71.47;100519.31;2822582;82;21122;-60
2021/03/10 04:04:13;;;;;;;111.20;58.30;;;;;;;-0.22;70.82;100518.05;2824087;84;21185;-60
2021/03/10 04:08:17;;;;;;;92.60;54.30;;;;;;;-0.04;70.30;100530.11;2824275;84;21163;-59
2021/03/10 04:12:21;;;;;;;94.58;57.43;;;;;;;-0.04;70.30;100530.11;2824077;84;21161;-61
2021/03/10 04:16:25;;;;;;;101.07;64.40;;;;;;;0.04;69.64;100525.48;2824215;84;21117;-59
2021/03/10 04:20:29;;;;;;;104.92;56.08;;;;;;;0.07;69.16;100529.30;2823751;84;21580;-60
2021/03/10 04:24:32;;;;;;;106.65;66.55;;;;;;;0.09;68.88;100531.84;2823282;84;21153;-61
2021/03/10 04:28:35;;;;;;;88.75;61.90;;;;;;;0.12;68.54;100532.61;2823973;84;21560;-60
2021/03/10 04:32:38;;;;;;;92.65;52.62;;;;;;;0.09;68.68;100534.03;2823757;84;21153;-60
2021/03/10 04:36:41;;;;;;;100.60;51.05;;;;;;;0.14;68.69;100538.64;2823735;84;21564;-61
2021/03/10 04:40:45;;;;;;;84.67;51.15;;;;;;;0.19;68.80;100536.31;2823825;84;21149;-61
2021/03/10 04:44:49;;;;;;;86.02;48.45;;;;;;;0.24;68.54;100535.72;2823630;84;21197;-61
2021/03/10 04:48:52;;;;;;;73.25;47.70;;;;;;;0.24;68.12;100547.50;2823796;84;21713;-61
2021/03/10 04:52:56;;;;;;;76.47;42.78;;;;;;;0.19;68.09;100545.47;2883205;81;21664;-61
2021/03/10 04:56:59;;;;;;;75.50;45.95;;;;;;;0.19;68.14;100548.08;2896055;81;21157;-61
2021/03/10 05:01:03;;;;;;;89.28;53.55;;;;;;;0.20;69.11;100547.20;2760703;85;21152;-60
2021/03/10 05:05:10;;;;;;;77.17;47.62;;;;;;;0.20;69.11;100547.20;2723869;86;21192;-60
2021/03/10 05:09:13;;;;;;;99.07;58.67;;;;;;;0.27;69.65;100551.31;2832605;83;21181;-60
2021/03/10 05:13:18;;;;;;;89.00;50.10;;;;;;;0.17;69.58;100550.77;2770139;85;21176;-61
2021/03/10 05:17:21;;;;;;;71.67;44.83;;;;;;;0.17;69.55;100552.52;2870253;81;21133;-60
2021/03/10 05:21:25;;;;;;;77.17;44.18;;;;;;;0.13;68.82;100557.86;2872990;82;21129;-61
2021/03/10 05:25:28;;;;;;;68.97;47.95;;;;;;;-0.04;68.57;100560.19;2872994;82;21161;-61
2021/03/10 05:29:32;;;;;;;76.90;47.98;;;;;;;-0.22;69.67;100558.58;2873247;82;21144;-61
2021/03/10 05:33:38;;;;;;;80.32;45.05;;;;;;;-0.17;70.04;100563.23;2872402;82;21587;-62
2021/03/10 05:37:41;;;;;;;83.20;48.63;;;;;;;-0.10;69.65;100574.78;2872971;82;21116;-60
2021/03/10 05:41:45;;;;;;;89.58;55.80;;;;;;;0.04;69.17;100573.88;2874215;81;21157;-61
2021/03/10 05:45:50;;;;;;;97.78;57.85;;;;;;;0.14;69.26;100575.27;2872860;82;21587;-61
2021/03/10 05:49:53;;;;;;;90.22;54.67;;;;;;;0.38;68.73;100575.33;2874879;81;21141;-61
2021/03/10 05:53:59;;;;;;;100.20;52.78;;;;;;;0.38;68.73;100575.33;2918590;81;21123;-59
2021/03/10 05:58:12;;;;;;;87.70;52.30;;;;;;;0.46;69.01;100575.53;2919202;81;21596;-61
2021/03/10 06:02:16;;;;;;;83.95;53.50;;;;;;;0.59;68.94;100570.27;2917967;81;21636;-62
2021/03/10 06:06:19;;;;;;;93.07;52.17;;;;;;;0.65;69.26;100574.41;2918560;81;21632;-61
2021/03/10 06:10:23;;;;;;;94.72;56.75;;;;;;;0.74;70.44;100553.14;2918571;81;21150;-60
2021/03/10 06:14:28;;;;;;;81.47;51.37;;;;;;;0.74;70.44;100553.14;2918500;81;21118;-60
2021/03/10 06:18:35;;;;;;;95.50;53.35;;;;;;;0.97;70.38;100569.77;2918630;81;21137;-61
2021/03/10 06:22:38;;;;;;;93.00;52.65;;;;;;;1.07;71.04;100576.83;2918627;81;21154;-61
2021/03/10 06:26:40;;;;;;;82.65;51.42;;;;;;;1.31;71.50;100583.35;2895134;81;21146;-60
2021/03/10 06:34:58;;;;;;;98.87;56.02;;;;;;;1.85;71.13;100579.46;2996733;77;24084;-60
2021/03/10 06:39:05;;;;;;;86.87;55.50;;;;;;;2.08;71.11;100581.59;2950916;80;21109;-60
2021/03/10 06:43:08;;;;;;;92.85;50.67;;;;;;;2.35;70.54;100598.40;2960934;79;21205;-61
2021/03/10 06:47:11;;;;;;;107.07;57.45;;;;;;;2.48;69.18;100596.57;2968556;78;21130;-59
2021/03/10 06:51:14;;;;;;;94.13;58.40;;;;;;;2.61;69.95;100601.70;2951624;80;21564;-61
2021/03/10 06:55:18;;;;;;;92.35;57.48;;;;;;;3.08;70.71;100604.89;2951722;80;21181;-60
2021/03/10 06:59:21;;;;;;;99.30;57.38;;;;;;;3.53;70.48;100606.30;2951765;80;21608;-60
2021/03/10 07:03:25;;;;;;;184.82;109.45;;;;;;;3.86;69.88;100616.14;2951998;80;21133;-62
2021/03/10 07:07:30;;;;;;;239.72;148.57;;;;;;;4.16;69.18;100613.87;2951693;80;21137;-60
2021/03/10 07:11:37;;;;;;;134.93;82.70;;;;;;;4.38;68.01;100621.08;2948116;80;21145;-60
2021/03/10 07:15:40;;;;;;;117.30;68.02;;;;;;;4.55;67.41;100618.89;2951953;80;21106;-61
2021/03/10 07:19:45;;;;;;;82.72;55.33;;;;;;;4.70;65.43;100623.83;2952064;80;21181;-59
2021/03/10 07:23:53;;;;;;;73.95;47.90;;;;;;;4.71;64.33;100633.92;2951673;80;21145;-59
2021/03/10 07:28:07;;;;;;;57.78;43.25;;;;;;;4.68;63.29;100639.35;2951807;80;21583;-62
2021/03/10 07:32:11;;;;;;;69.37;46.08;;;;;;;4.72;62.88;100648.80;2938378;80;21154;-60
2021/03/10 07:36:14;;;;;;;70.28;43.87;;;;;;;4.65;62.04;100639.03;2951661;80;21118;-60
2021/03/10 07:40:18;;;;;;;72.80;45.90;;;;;;;4.66;62.30;100642.05;2951685;80;21170;-60
2021/03/10 07:44:26;;;;;;;79.90;44.65;;;;;;;4.65;62.57;100645.62;2951209;80;21185;-60
2021/03/10 07:48:34;;;;;;;67.60;43.02;;;;;;;4.86;62.51;100649.39;2951136;80;21157;-61
2021/03/10 07:52:43;;;;;;;81.97;48.05;;;;;;;5.15;62.12;100652.30;2950555;80;21169;-61
2021/03/10 07:56:46;;;;;;;79.55;53.75;;;;;;;5.39;62.03;100651.42;2948904;80;21153;-61
2021/03/10 08:00:51;;;;;;;82.97;53.87;;;;;;;5.59;62.05;100660.03;2950937;80;21118;-61
2021/03/10 08:05:01;;;;;;;84.40;56.18;;;;;;;5.76;62.13;100659.12;2947358;80;21177;-61
2021/03/10 08:09:05;;;;;;;86.78;52.48;;;;;;;5.89;61.79;100659.28;2908141;81;21185;-62
2021/03/10 08:13:17;;;;;;;84.92;52.33;;;;;;;5.93;61.50;100663.93;2908333;80;21124;-61
2021/03/10 08:17:25;;;;;;;80.67;49.65;;;;;;;6.02;61.46;100666.06;2908748;81;21140;-63
2021/03/10 08:21:31;;;;;;;79.15;48.85;;;;;;;6.12;61.18;100671.22;2908683;81;21167;-62
2021/03/10 08:25:34;;;;;;;75.52;49.27;;;;;;;6.24;60.54;100666.16;2908453;81;21132;-62
2021/03/10 08:29:49;;;;;;;69.10;50.05;;;;;;;6.38;60.39;100664.03;2908176;81;21168;-62
2021/03/10 08:33:53;;;;;;;67.35;45.92;;;;;;;6.52;59.80;100664.56;2905735;81;21625;-62
2021/03/10 08:38:02;;;;;;;71.80;44.13;;;;;;;6.61;59.39;100661.85;2904572;81;21123;-62
2021/03/10 08:42:06;;;;;;;87.97;50.58;;;;;;;6.62;58.47;100658.27;2904588;82;21136;-62
2021/03/10 08:46:09;;;;;;;67.70;44.98;;;;;;;6.69;59.26;100653.84;2904299;81;21105;-63
2021/03/10 08:50:35;;;;;;;73.02;42.90;;;;;;;6.76;58.48;100652.98;2904310;81;21558;-63
2021/03/10 08:54:59;;;;;;;69.47;43.15;;;;;;;6.66;57.18;100661.94;2835516;83;21663;-61
2021/03/10 08:59:02;;;;;;;62.93;43.38;;;;;;;6.41;58.14;100660.75;2850054;82;21169;-62
2021/03/10 09:03:17;;;;;;;57.30;38.05;;;;;;;6.13;58.71;100666.77;2873274;82;21615;-61
2021/03/10 09:07:23;;;;;;;57.67;40.92;;;;;;;6.08;58.89;100668.83;2873528;82;21168;-61
2021/03/10 09:11:26;;;;;;;60.80;37.05;;;;;;;5.96;58.61;100667.71;2872992;82;21164;-63
2021/03/10 09:15:32;;;;;;;52.08;37.15;;;;;;;6.03;59.12;100670.41;2872845;82;21136;-61
2021/03/10 09:19:49;;;;;;;52.83;32.67;;;;;;;6.24;57.82;100663.52;2873510;82;21152;-62
2021/03/10 09:24:01;;;;;;;55.88;31.65;;;;;;;6.52;57.25;100663.25;2873793;82;21196;-61
2021/03/10 09:28:09;;;;;;;49.55;31.33;;;;;;;6.80;56.12;100658.95;2873272;82;21654;-63
2021/03/10 09:32:13;;;;;;;42.53;28.42;;;;;;;7.00;55.08;100661.23;2873089;82;21192;-62
2021/03/10 09:36:25;;;;;;;40.83;25.65;;;;;;;7.18;54.55;100655.77;2873092;82;21619;-62
2021/03/10 09:40:57;;;;;;;35.55;22.95;;;;;;;7.32;51.08;100652.74;2873400;82;21176;-63
2021/03/10 09:45:00;;;;;;;37.17;24.60;;;;;;;7.23;50.05;100648.38;2872998;82;21113;-62
2021/03/10 09:49:04;;;;;;;39.35;22.82;;;;;;;7.22;49.62;100644.53;2873471;82;21133;-63
2021/03/10 09:53:18;;;;;;;34.33;21.40;;;;;;;7.20;48.95;100635.83;2862221;82;22330;-63
2021/03/10 09:57:23;;;;;;;40.28;25.75;;;;;;;7.20;49.46;100639.80;2823240;84;21186;-63
2021/03/10 10:01:30;;;;;;;39.70;24.40;;;;;;;7.28;49.55;100651.61;2855068;83;21094;-63
2021/03/10 10:05:38;;;;;;;26.97;17.50;;;;;;;7.32;50.40;100655.39;2823216;84;21166;-63
2021/03/10 10:09:41;;;;;;;33.23;20.37;;;;;;;7.43;48.23;100663.48;2854711;83;21618;-62
2021/03/10 10:13:47;;;;;;;23.47;14.38;;;;;;;7.60;48.64;100669.06;2822736;84;21166;-64
2021/03/10 10:17:55;;;;;;;21.65;14.05;;;;;;;7.71;47.24;100675.00;2854594;83;21176;-62
2021/03/10 10:22:00;;;;;;;29.57;15.90;;;;;;;7.84;46.30;100669.77;2775794;85;21193;-63
2021/03/10 10:26:05;;;;;;;16.30;13.80;;;;;;;8.02;46.34;100673.50;2824783;84;21138;-64
2021/03/10 10:30:11;;;;;;;19.42;12.55;;;;;;;8.12;45.06;100674.13;2824924;83;21617;-63
2021/03/10 10:34:14;;;;;;;22.20;13.55;;;;;;;8.24;44.70;100680.41;2820291;84;21150;-63
2021/03/10 10:38:16;;;;;;;24.15;18.20;;;;;;;8.18;44.86;100679.50;2788709;85;21178;-63
2021/03/10 10:42:21;;;;;;;23.22;14.73;;;;;;;8.33;44.38;100681.61;2788557;85;21134;-64
2021/03/10 10:46:24;;;;;;;30.00;18.50;;;;;;;8.37;42.98;100671.17;2785845;85;21194;-62
2021/03/10 10:50:28;;;;;;;15.08;13.35;;;;;;;8.41;42.54;100675.31;2853919;83;21120;-64
2021/03/10 10:54:30;;;;;;;21.75;12.93;;;;;;;8.47;41.85;100671.89;2853915;83;21205;-63
2021/03/10 10:58:33;;;;;;;14.03;9.93;;;;;;;8.62;42.04;100673.52;2854088;83;21198;-63
2021/03/10 11:02:38;;;;;;;14.85;11.30;;;;;;;8.67;42.40;100674.09;2854104;83;21181;-64
2021/03/10 11:06:41;;;;;;;13.58;10.65;;;;;;;8.69;42.54;100677.48;2847205;83;21496;-62
2021/03/10 11:10:45;;;;;;;15.40;8.73;;;;;;;8.70;41.48;100671.22;2820128;84;21170;-64
2021/03/10 11:14:50;;;;;;;15.38;10.08;;;;;;;8.57;39.01;100675.64;2780241;85;21179;-63
2021/03/10 11:18:53;;;;;;;23.10;15.55;;;;;;;8.47;40.22;100670.08;2832921;84;21190;-65
2021/03/10 11:22:56;;;;;;;11.05;7.05;;;;;;;8.62;39.92;100668.22;2833190;83;21178;-63
2021/03/10 11:26:59;;;;;;;10.65;7.50;;;;;;;8.63;39.40;100671.24;2783427;85;21182;-63
2021/03/10 11:31:02;;;;;;;12.28;7.58;;;;;;;8.66;38.94;100664.44;2783144;85;21171;-63
2021/03/10 11:35:08;;;;;;;15.58;11.35;;;;;;;8.70;38.97;100658.42;2783495;85;21130;-65
2021/03/10 11:39:13;;;;;;;16.50;11.80;;;;;;;8.73;39.16;100657.37;2833058;84;21205;-64
2021/03/10 11:43:17;;;;;;;17.62;8.45;;;;;;;8.69;39.27;100648.31;2833062;83;21142;-65
2021/03/10 11:47:20;;;;;;;9.10;7.78;;;;;;;8.69;38.81;100647.44;2783237;85;21174;-65
2021/03/10 11:51:23;;;;;;;12.30;8.60;;;;;;;8.60;38.05;100642.29;2783292;84;21210;-64
2021/03/10 11:55:26;;;;;;;14.33;10.53;;;;;;;8.69;37.57;100629.74;2876910;82;21120;-62
2021/03/10 11:59:30;;;;;;;24.90;13.28;;;;;;;8.81;38.98;100624.06;2834765;84;21146;-64
2021/03/10 12:03:34;;;;;;;20.55;14.35;;;;;;;8.87;38.97;100626.78;2881889;82;21117;-62
2021/03/10 12:07:38;;;;;;;18.25;10.53;;;;;;;8.95;38.03;100621.77;2834934;84;21166;-63
2021/03/10 12:11:41;;;;;;;16.35;11.35;;;;;;;8.85;37.31;100620.73;2834605;84;21850;-63
2021/03/10 12:15:46;;;;;;;20.37;15.13;;;;;;;8.77;38.07;100615.09;2832734;84;21190;-63
2021/03/10 12:19:51;;;;;;;18.60;14.00;;;;;;;8.79;37.67;100601.24;2879045;82;21159;-64
2021/03/10 12:23:54;;;;;;;19.32;14.00;;;;;;;8.82;37.69;100599.70;2835069;84;21605;-63
2021/03/10 12:27:57;;;;;;;15.48;12.25;;;;;;;8.85;37.40;100584.42;2881586;82;21200;-65
2021/03/10 12:32:00;;;;;;;23.77;13.03;;;;;;;8.93;37.28;100580.38;2834924;84;21202;-63
2021/03/10 12:36:05;;;;;;;22.13;12.43;;;;;;;8.96;38.02;100570.90;2834881;83;21632;-63
2021/03/10 12:40:09;;;;;;;44.35;28.52;;;;;;;9.03;38.38;100562.00;2881748;82;21172;-62
2021/03/10 12:44:12;;;;;;;17.67;11.35;;;;;;;9.02;37.74;100561.17;2835165;84;21187;-63
2021/03/10 12:48:15;;;;;;;19.05;11.70;;;;;;;9.07;38.13;100564.34;2881632;82;21132;-64
2021/03/10 12:52:20;;;;;;;14.33;11.00;;;;;;;9.10;37.30;100559.30;2834805;84;21210;-63
2021/03/10 12:56:23;;;;;;;18.52;12.03;;;;;;;9.11;36.93;100555.69;2881561;82;21144;-63
2021/03/10 13:00:27;;;;;;;58.95;36.00;;;;;;;9.20;38.27;100556.34;2834890;84;21177;-63
2021/03/10 13:04:30;;;;;;;13.78;11.85;;;;;;;9.25;37.44;100562.19;2835246;84;21165;-65
2021/03/10 13:08:33;;;;;;;14.07;9.48;;;;;;;9.27;36.88;100561.59;2881544;82;21165;-64
2021/03/10 13:12:36;;;;;;;15.68;11.22;;;;;;;9.22;36.46;100557.57;2881756;82;21164;-63
2021/03/10 13:16:41;;;;;;;12.58;10.25;;;;;;;9.08;36.70;100551.93;2834687;84;21171;-65
2021/03/10 13:20:44;;;;;;;26.15;15.08;;;;;;;8.99;36.42;100546.80;2881589;82;21156;-64
2021/03/10 13:24:47;;;;;;;15.98;11.73;;;;;;;9.08;37.32;100557.23;2834791;84;21162;-63
2021/03/10 13:28:51;;;;;;;15.23;10.28;;;;;;;9.21;36.50;100553.22;2881668;82;21148;-63
2021/03/10 13:32:54;;;;;;;14.60;10.13;;;;;;;9.32;37.92;100557.25;2834724;84;21186;-63
2021/03/10 13:36:58;;;;;;;54.05;31.15;;;;;;;9.37;37.37;100548.97;2881748;82;21176;-63
2021/03/10 13:41:01;;;;;;;24.12;14.95;;;;;;;9.33;36.43;100547.50;2797746;84;21206;-63
2021/03/10 13:45:05;;;;;;;24.90;17.12;;;;;;;9.38;36.80;100547.54;2749140;85;21162;-63
2021/03/10 13:49:08;;;;;;;37.15;25.32;;;;;;;9.56;36.23;100551.97;2782002;85;21210;-63
2021/03/10 13:53:12;;;;;;;30.05;19.75;;;;;;;9.54;36.43;100551.73;2780138;83;21166;-63
2021/03/10 13:57:14;;;;;;;18.35;11.10;;;;;;;9.49;36.24;100551.20;2863796;83;21125;-63
2021/03/10 14:01:19;;;;;;;15.13;10.88;;;;;;;9.55;36.59;100556.09;2835511;83;21179;-63
2021/03/10 14:05:22;;;;;;;17.17;11.18;;;;;;;9.70;36.76;100554.09;2782008;85;22345;-63
2021/03/10 14:09:26;;;;;;;14.60;10.50;;;;;;;9.86;36.36;100559.11;2782415;85;21178;-63
2021/03/10 14:13:32;;;;;;;22.73;11.70;;;;;;;9.91;35.75;100562.27;2782201;85;21181;-63
2021/03/10 14:17:36;;;;;;;19.70;13.62;;;;;;;9.78;36.11;100558.35;2782688;85;21161;-63
2021/03/10 14:21:43;;;;;;;17.80;11.22;;;;;;;9.57;35.20;100558.98;2782353;85;21130;-63
2021/03/10 14:25:48;;;;;;;14.53;10.85;;;;;;;9.60;36.94;100557.05;2827107;84;21167;-61
2021/03/10 14:29:52;;;;;;;14.45;10.45;;;;;;;9.53;36.15;100556.19;2782501;85;21150;-62
2021/03/10 14:33:55;;;;;;;18.32;13.35;;;;;;;9.49;35.80;100557.38;2782096;85;21194;-62
2021/03/10 14:38:00;;;;;;;15.78;11.85;;;;;;;9.45;36.00;100553.72;2782780;84;21202;-61
2021/03/10 14:42:06;;;;;;;18.40;10.48;;;;;;;9.54;36.09;100555.72;2782303;85;21181;-62
2021/03/10 14:46:09;;;;;;;18.27;11.08;;;;;;;9.59;35.89;100564.19;2831570;84;21107;-64
2021/03/10 14:50:45;;;;;;;15.90;10.95;;;;;;;9.53;36.71;100560.17;2883193;82;21105;-64
2021/03/10 14:54:48;;;;;;;16.93;11.57;;;;;;;9.42;36.66;100556.97;2828225;84;21166;-62
2021/03/10 14:58:51;;;;;;;16.87;12.63;;;;;;;9.35;36.89;100557.52;2789524;84;21566;-64
2021/03/10 15:03:32;;;;;;;16.77;13.18;;;;;;;9.32;36.80;100554.60;2780219;84;21564;-63
2021/03/10 15:07:36;;;;;;;22.67;10.98;;;;;;;9.14;36.43;100555.00;2780137;85;21146;-63
2021/03/10 15:12:13;;;;;;;18.25;13.18;;;;;;;8.87;36.84;100551.17;2780484;85;21178;-62
2021/03/10 15:16:17;;;;;;;14.00;11.08;;;;;;;8.80;37.01;100547.23;2796126;84;21175;-62
2021/03/10 15:20:58;;;;;;;12.00;9.63;;;;;;;8.75;36.99;100546.72;2745767;85;21581;-63
2021/03/10 15:25:02;;;;;;;17.05;13.00;;;;;;;8.77;37.45;100540.83;2732462;85;21153;-61
2021/03/10 15:29:05;;;;;;;24.92;13.72;;;;;;;8.76;37.05;100543.11;2795240;84;21652;-63
2021/03/10 15:33:42;;;;;;;14.28;10.15;;;;;;;8.78;37.84;100545.17;2823819;84;21910;-62
2021/03/10 15:37:46;;;;;;;;;;;;;;;8.76;37.77;100536.48;2824321;84;21178;-63
2021/03/10 15:46:25;;;;;;;30.72;18.70;;;;;;;8.63;37.41;100531.19;2823094;84;21177;-62
2021/03/10 15:50:28;;;;;;;17.05;11.78;;;;;;;8.53;37.57;100521.70;2822517;84;21174;-61
2021/03/10 15:54:31;;;;;;;25.85;17.98;;;;;;;8.51;37.57;100524.45;2822399;84;21624;-60
2021/03/10 15:58:34;;;;;;;20.88;14.23;;;;;;;8.55;38.03;100520.66;2822461;84;21174;-62
2021/03/10 16:02:40;;;;;;;25.92;17.52;;;;;;;8.55;38.86;100523.77;2822306;84;21171;-61
2021/03/10 16:06:44;;;;;;;57.90;41.18;;;;;;;8.42;39.12;100527.22;2822616;84;21174;-62
2021/03/10 16:10:47;;;;;;;106.75;70.80;;;;;;;8.37;39.68;100520.08;2822729;84;21560;-61
2021/03/10 16:14:50;;;;;;;82.97;49.58;;;;;;;8.19;39.20;100521.34;2822594;84;21648;-62
2021/03/10 16:18:55;;;;;;;157.05;74.42;;;;;;;8.10;39.01;100520.16;2819628;84;21187;-61
2021/03/10 16:23:08;;;;;;;47.90;26.12;;;;;;;7.98;39.26;100520.52;2778218;85;21210;-63
2021/03/10 16:27:23;;;;;;;37.50;25.08;;;;;;;7.81;40.14;100522.48;2778709;85;21818;-61
2021/03/10 16:31:44;;;;;;;64.20;43.63;;;;;;;7.55;42.48;100526.39;2778967;85;21182;-63
2021/03/10 16:35:53;;;;;;;62.70;45.23;;;;;;;7.34;43.07;100526.46;2778649;85;21671;-62
2021/03/10 16:39:59;;;;;;;60.03;42.17;;;;;;;7.02;43.99;100526.25;2778999;85;21632;-62
2021/03/10 16:48:33;;;;;;;50.98;36.50;;;;;;;6.48;44.96;100534.84;2778612;85;21146;-62
2021/03/10 16:52:42;;;;;;;111.22;61.75;;;;;;;6.28;44.89;100536.44;2778644;85;21173;-62
2021/03/10 17:01:24;;;;;;;108.10;56.33;;;;;;;6.14;45.12;100532.44;2820884;82;21135;-63
2021/03/10 17:05:38;;;;;;;58.55;35.35;;;;;;;6.04;45.74;100532.63;2827864;82;21128;-63
2021/03/10 17:09:47;;;;;;;44.58;32.35;;;;;;;5.75;47.52;100535.13;2861661;82;21200;-62
2021/03/10 17:13:51;;;;;;;68.15;41.68;;;;;;;5.47;48.51;100538.87;2835283;82;21158;-62
2021/03/10 17:17:55;;;;;;;82.47;53.73;;;;;;;5.29;49.30;100538.95;2796005;84;21159;-64
2021/03/10 17:22:00;;;;;;;95.55;55.15;;;;;;;5.21;49.97;100539.00;2761559;84;21616;-64
2021/03/10 17:26:04;;;;;;;69.15;41.40;;;;;;;5.06;50.01;100537.61;2824877;83;21587;-62
2021/03/10 17:30:09;;;;;;;75.62;45.35;;;;;;;4.98;49.59;100549.89;2781701;84;21643;-63
2021/03/10 17:34:12;;;;;;;70.60;41.75;;;;;;;4.94;48.83;100547.05;2843888;82;21650;-62
2021/03/10 17:38:19;;;;;;;66.28;39.80;;;;;;;4.98;48.82;100552.53;2864669;83;21152;-61
2021/03/10 17:42:21;;;;;;;48.90;38.53;;;;;;;4.97;48.87;100557.88;2864525;82;21168;-61
2021/03/10 17:46:24;;;;;;;50.67;33.08;;;;;;;4.95;48.84;100555.34;2864575;83;21229;-63
2021/03/10 17:50:28;;;;;;;46.68;31.15;;;;;;;4.95;48.30;100557.11;2865130;82;21157;-62
2021/03/10 17:54:33;;;;;;;56.18;38.80;;;;;;;4.89;48.68;100556.97;2864278;83;21181;-61
2021/03/10 17:58:36;;;;;;;54.48;35.20;;;;;;;4.82;48.72;100556.92;2864391;83;21603;-61
2021/03/10 18:02:41;;;;;;;45.15;27.62;;;;;;;4.73;49.16;100550.84;2864168;83;21188;-62
2021/03/10 18:06:44;;;;;;;43.48;30.62;;;;;;;4.45;49.91;100550.95;2864289;83;21185;-62
2021/03/10 18:10:49;;;;;;;50.70;29.82;;;;;;;4.20;50.49;100552.22;2864194;83;21148;-61
2021/03/10 18:14:52;;;;;;;27.05;19.48;;;;;;;4.03;51.37;100557.00;2864570;83;21619;-62
2021/03/10 18:18:57;;;;;;;28.80;20.02;;;;;;;3.85;52.16;100555.23;2864433;83;21192;-62
2021/03/10 18:23:00;;;;;;;70.72;37.15;;;;;;;3.71;53.06;100559.86;2864242;82;21152;-62
2021/03/10 18:27:05;;;;;;;135.57;73.67;;;;;;;3.66;53.16;100562.32;2864316;82;21165;-62
2021/03/10 18:31:08;;;;;;;211.45;106.85;;;;;;;3.61;53.93;100560.38;2864420;83;21161;-62
2021/03/10 18:35:25;;;;;;;442.00;241.75;;;;;;;3.63;53.60;100566.42;2707855;87;21185;-63
2021/03/10 18:39:31;;;;;;;425.05;236.52;;;;;;;3.62;53.41;100568.18;2676550;88;21667;-60
2021/03/10 18:43:39;;;;;;;416.95;228.00;;;;;;;3.60;53.33;100573.98;2681625;88;21185;-63
2021/03/10 18:47:42;;;;;;;432.52;243.78;;;;;;;3.57;53.14;100572.37;2681080;88;21165;-62
2021/03/10 18:51:46;;;;;;;433.83;251.95;;;;;;;3.51;53.71;100579.22;2689252;88;21204;-62
2021/03/10 18:55:51;;;;;;;258.60;145.32;;;;;;;3.36;54.13;100582.60;2680664;88;21177;-64
2021/03/10 18:59:56;;;;;;;202.68;106.90;;;;;;;3.09;54.74;100573.30;2680623;88;21198;-64
2021/03/10 19:03:59;;;;;;;98.35;55.33;;;;;;;2.89;55.23;100579.44;2673288;87;21174;-64
2021/03/10 19:08:04;;;;;;;137.52;76.28;;;;;;;2.81;56.68;100575.01;2671986;87;21185;-63
2021/03/10 19:12:08;;;;;;;132.07;73.50;;;;;;;2.70;57.29;100571.06;2675339;87;21198;-63
2021/03/10 19:16:13;;;;;;;127.80;78.45;;;;;;;2.58;57.45;100576.88;2678658;88;21213;-63